Kezdőlap
METAR-TAF:

METAR-TAF

Repülőterek :

Córdoba, Argentína

földrajzi szélesség: 31-19S, földrajzi hosszúság: 064-13W, magasság: 484 m

Jelenlegi meteorológiai megfigyelések

A jelentés 33 perccel ezelõtt készült, 10:00 UTC
Nyugati szél 5 kt
Hőmérséklet 3°C
Páratartalom 65%
Légköri nyomás 1022 hPa
Látótávolság 10 km, vagy több
felhőtlen 1500 m magasságban, és nincs gomolyfelhõ

METAR: SACO 161000Z 28005KT CAVOK 03/M03 Q1022 NOSIG

Idő: 07:33 (10:33 UTC)

Előrejelzés

A jelentés 5 órával és 33 perccel ezelõtt készült, 05:00 UTC
Az előrejelzés 16-én 06 óra UTC és 17-én 06 óra UTC között érvényes
Délnyugati szél 10 kt
Látótávolság 10 km, vagy több
felhőtlen 1500 m magasságban, és nincs gomolyfelhõ

TAF: SACO 160500Z 1606/1706 23010KT CAVOK TX14/1618Z TN00/1610Z

Meteorológiai megfigyelések és előrejelzések több, mint 4000 repülőtéren (METAR és TAF jelentéseket).

A térképen piros és sárga pontok jelzik az elérhető meteorológiai állomásokat.

Mozgassa az egeret a pont fölött, hogy megjelenjen az állomás neve.

Azután kattintson az időjárási megfigyelések és előrejelzések megtekintéséhez.

A térkép megváltoztatása: kattintson a fekete keresztel jelölt zöld gombra ráközelítéshez, a vonallal jelölt zöld gombra távolításhoz, vagy a zöld nyilakra a szomszédos térképek eléréséhez.


METAR-TAF: